sensor_id;sensor_type;location;lat;lon;timestamp;temperature;humidity
51811;DHT22;52468;40.116;18.296;2023-04-09T00:01:04;12.50;77.90
51811;DHT22;52468;40.116;18.296;2023-04-09T00:03:33;12.40;78.00
51811;DHT22;52468;40.116;18.296;2023-04-09T00:06:01;12.50;78.00
51811;DHT22;52468;40.116;18.296;2023-04-09T00:08:30;12.40;77.90
51811;DHT22;52468;40.116;18.296;2023-04-09T00:10:58;12.40;77.80
51811;DHT22;52468;40.116;18.296;2023-04-09T00:13:26;12.40;77.90
51811;DHT22;52468;40.116;18.296;2023-04-09T00:16:02;12.30;77.90
51811;DHT22;52468;40.116;18.296;2023-04-09T00:18:30;12.30;78.00
51811;DHT22;52468;40.116;18.296;2023-04-09T00:20:58;12.30;77.90
51811;DHT22;52468;40.116;18.296;2023-04-09T00:23:26;12.20;78.00
51811;DHT22;52468;40.116;18.296;2023-04-09T00:25:54;12.20;78.30
51811;DHT22;52468;40.116;18.296;2023-04-09T00:28:21;12.20;78.20
51811;DHT22;52468;40.116;18.296;2023-04-09T00:30:49;12.20;77.90
51811;DHT22;52468;40.116;18.296;2023-04-09T00:33:17;12.30;78.10
51811;DHT22;52468;40.116;18.296;2023-04-09T00:35:45;12.30;78.20
51811;DHT22;52468;40.116;18.296;2023-04-09T00:38:13;12.20;78.30
51811;DHT22;52468;40.116;18.296;2023-04-09T00:40:41;12.20;78.10
51811;DHT22;52468;40.116;18.296;2023-04-09T00:43:09;12.30;77.30
51811;DHT22;52468;40.116;18.296;2023-04-09T00:45:37;12.20;76.40
51811;DHT22;52468;40.116;18.296;2023-04-09T00:48:05;12.20;76.40
51811;DHT22;52468;40.116;18.296;2023-04-09T00:50:33;12.10;74.50
51811;DHT22;52468;40.116;18.296;2023-04-09T00:53:01;12.10;74.30
51811;DHT22;52468;40.116;18.296;2023-04-09T00:55:29;12.20;73.60
51811;DHT22;52468;40.116;18.296;2023-04-09T00:57:57;12.10;72.90
51811;DHT22;52468;40.116;18.296;2023-04-09T01:00:25;12.10;72.60
51811;DHT22;52468;40.116;18.296;2023-04-09T01:02:56;12.00;72.70
51811;DHT22;52468;40.116;18.296;2023-04-09T01:05:41;11.70;73.80
51811;DHT22;52468;40.116;18.296;2023-04-09T01:11:34;11.30;75.60
51811;DHT22;52468;40.116;18.296;2023-04-09T01:16:43;11.20;76.10
51811;DHT22;52468;40.116;18.296;2023-04-09T01:19:32;11.20;76.40
51811;DHT22;52468;40.116;18.296;2023-04-09T01:22:01;11.30;76.60
51811;DHT22;52468;40.116;18.296;2023-04-09T01:24:41;11.30;76.80
51811;DHT22;52468;40.116;18.296;2023-04-09T01:27:19;11.40;76.50
51811;DHT22;52468;40.116;18.296;2023-04-09T01:29:53;11.50;76.20
51811;DHT22;52468;40.116;18.296;2023-04-09T01:32:22;11.60;76.20
51811;DHT22;52468;40.116;18.296;2023-04-09T01:34:51;11.70;76.10
51811;DHT22;52468;40.116;18.296;2023-04-09T01:37:20;11.80;76.30
51811;DHT22;52468;40.116;18.296;2023-04-09T01:39:48;11.60;77.00
51811;DHT22;52468;40.116;18.296;2023-04-09T01:42:17;11.70;76.90
51811;DHT22;52468;40.116;18.296;2023-04-09T01:44:46;11.80;76.60
51811;DHT22;52468;40.116;18.296;2023-04-09T01:47:15;11.70;77.10
51811;DHT22;52468;40.116;18.296;2023-04-09T01:49:43;11.60;77.40
51811;DHT22;52468;40.116;18.296;2023-04-09T01:52:12;11.70;76.90
51811;DHT22;52468;40.116;18.296;2023-04-09T01:54:41;11.60;76.80
51811;DHT22;52468;40.116;18.296;2023-04-09T01:57:09;11.50;76.90
51811;DHT22;52468;40.116;18.296;2023-04-09T01:59:37;11.50;77.10
51811;DHT22;52468;40.116;18.296;2023-04-09T02:02:09;11.40;76.90
51811;DHT22;52468;40.116;18.296;2023-04-09T02:04:42;11.40;76.90
51811;DHT22;52468;40.116;18.296;2023-04-09T02:07:37;11.30;77.00
51811;DHT22;52468;40.116;18.296;2023-04-09T02:10:07;11.30;76.80
51811;DHT22;52468;40.116;18.296;2023-04-09T02:12:37;11.20;76.70
51811;DHT22;52468;40.116;18.296;2023-04-09T02:15:07;11.20;76.70
51811;DHT22;52468;40.116;18.296;2023-04-09T02:17:35;11.10;76.70
51811;DHT22;52468;40.116;18.296;2023-04-09T02:20:04;11.10;76.80
51811;DHT22;52468;40.116;18.296;2023-04-09T02:22:32;11.10;76.50
51811;DHT22;52468;40.116;18.296;2023-04-09T02:25:00;11.10;76.70
51811;DHT22;52468;40.116;18.296;2023-04-09T02:27:28;11.00;76.80
51811;DHT22;52468;40.116;18.296;2023-04-09T02:29:55;11.00;77.00
51811;DHT22;52468;40.116;18.296;2023-04-09T02:32:24;10.90;77.00
51811;DHT22;52468;40.116;18.296;2023-04-09T02:34:51;10.90;77.20
51811;DHT22;52468;40.116;18.296;2023-04-09T02:37:19;10.90;77.40
51811;DHT22;52468;40.116;18.296;2023-04-09T02:39:47;10.90;77.10
51811;DHT22;52468;40.116;18.296;2023-04-09T02:42:15;10.80;77.40
51811;DHT22;52468;40.116;18.296;2023-04-09T02:44:43;10.90;77.40
51811;DHT22;52468;40.116;18.296;2023-04-09T02:47:12;10.90;77.60
51811;DHT22;52468;40.116;18.296;2023-04-09T02:49:41;10.90;77.90
51811;DHT22;52468;40.116;18.296;2023-04-09T02:52:09;11.00;77.90
51811;DHT22;52468;40.116;18.296;2023-04-09T02:54:38;10.90;78.00
51811;DHT22;52468;40.116;18.296;2023-04-09T02:57:06;10.90;78.00
51811;DHT22;52468;40.116;18.296;2023-04-09T02:59:33;10.90;78.50
51811;DHT22;52468;40.116;18.296;2023-04-09T03:02:02;10.90;78.50
51811;DHT22;52468;40.116;18.296;2023-04-09T03:04:30;11.00;78.20
51811;DHT22;52468;40.116;18.296;2023-04-09T03:06:58;11.00;78.30
51811;DHT22;52468;40.116;18.296;2023-04-09T03:09:26;10.90;79.10
51811;DHT22;52468;40.116;18.296;2023-04-09T03:11:54;11.00;79.30
51811;DHT22;52468;40.116;18.296;2023-04-09T03:14:23;11.10;78.70
51811;DHT22;52468;40.116;18.296;2023-04-09T03:16:51;11.00;78.50
51811;DHT22;52468;40.116;18.296;2023-04-09T03:19:19;10.90;78.90
51811;DHT22;52468;40.116;18.296;2023-04-09T03:21:47;11.00;79.00
51811;DHT22;52468;40.116;18.296;2023-04-09T03:24:18;10.90;79.20
51811;DHT22;52468;40.116;18.296;2023-04-09T03:26:46;10.90;79.10
51811;DHT22;52468;40.116;18.296;2023-04-09T03:29:15;10.90;79.20
51811;DHT22;52468;40.116;18.296;2023-04-09T03:31:43;10.90;79.20
51811;DHT22;52468;40.116;18.296;2023-04-09T03:34:11;10.90;79.30
51811;DHT22;52468;40.116;18.296;2023-04-09T03:36:39;11.00;79.30
51811;DHT22;52468;40.116;18.296;2023-04-09T03:39:16;11.00;79.40
51811;DHT22;52468;40.116;18.296;2023-04-09T03:41:45;11.00;79.50
51811;DHT22;52468;40.116;18.296;2023-04-09T03:44:15;11.00;79.60
51811;DHT22;52468;40.116;18.296;2023-04-09T03:47:07;11.00;79.70
51811;DHT22;52468;40.116;18.296;2023-04-09T03:49:37;10.90;79.90
51811;DHT22;52468;40.116;18.296;2023-04-09T03:52:14;10.90;80.10
51811;DHT22;52468;40.116;18.296;2023-04-09T03:54:45;11.00;80.00
51811;DHT22;52468;40.116;18.296;2023-04-09T03:57:18;11.00;80.10
51811;DHT22;52468;40.116;18.296;2023-04-09T03:59:48;11.00;80.00
51811;DHT22;52468;40.116;18.296;2023-04-09T04:02:20;11.00;80.00
51811;DHT22;52468;40.116;18.296;2023-04-09T04:04:56;11.00;79.50
51811;DHT22;52468;40.116;18.296;2023-04-09T04:07:29;11.00;79.80
51811;DHT22;52468;40.116;18.296;2023-04-09T04:10:06;11.00;79.80
51811;DHT22;52468;40.116;18.296;2023-04-09T04:12:34;11.00;79.90
51811;DHT22;52468;40.116;18.296;2023-04-09T04:15:06;11.00;79.80
51811;DHT22;52468;40.116;18.296;2023-04-09T04:17:49;11.00;80.00
51811;DHT22;52468;40.116;18.296;2023-04-09T04:20:25;11.00;80.00
51811;DHT22;52468;40.116;18.296;2023-04-09T04:22:59;11.10;80.00
51811;DHT22;52468;40.116;18.296;2023-04-09T04:25:27;11.10;80.00
51811;DHT22;52468;40.116;18.296;2023-04-09T04:27:56;11.10;80.00
51811;DHT22;52468;40.116;18.296;2023-04-09T04:30:31;11.10;80.10
51811;DHT22;52468;40.116;18.296;2023-04-09T04:33:05;11.10;80.30
51811;DHT22;52468;40.116;18.296;2023-04-09T04:35:41;11.10;80.30
51811;DHT22;52468;40.116;18.296;2023-04-09T04:38:16;11.20;80.00
51811;DHT22;52468;40.116;18.296;2023-04-09T04:40:45;11.10;80.50
51811;DHT22;52468;40.116;18.296;2023-04-09T04:43:13;11.10;80.40
51811;DHT22;52468;40.116;18.296;2023-04-09T04:45:41;11.10;80.50
51811;DHT22;52468;40.116;18.296;2023-04-09T04:48:11;11.10;80.70
51811;DHT22;52468;40.116;18.296;2023-04-09T04:50:39;11.10;80.70
51811;DHT22;52468;40.116;18.296;2023-04-09T04:53:09;11.10;80.70
51811;DHT22;52468;40.116;18.296;2023-04-09T04:55:44;11.30;80.40
51811;DHT22;52468;40.116;18.296;2023-04-09T04:58:15;11.20;80.40
51811;DHT22;52468;40.116;18.296;2023-04-09T05:00:48;11.20;80.60
51811;DHT22;52468;40.116;18.296;2023-04-09T05:03:16;11.20;80.50
51811;DHT22;52468;40.116;18.296;2023-04-09T05:06:05;11.20;80.50
51811;DHT22;52468;40.116;18.296;2023-04-09T05:08:41;11.20;80.70
51811;DHT22;52468;40.116;18.296;2023-04-09T05:11:12;11.30;80.60
51811;DHT22;52468;40.116;18.296;2023-04-09T05:13:42;11.30;80.60
51811;DHT22;52468;40.116;18.296;2023-04-09T05:16:18;11.20;80.80
51811;DHT22;52468;40.116;18.296;2023-04-09T05:18:53;11.30;80.70
51811;DHT22;52468;40.116;18.296;2023-04-09T05:21:20;11.30;80.60
51811;DHT22;52468;40.116;18.296;2023-04-09T05:23:50;11.50;80.40
51811;DHT22;52468;40.116;18.296;2023-04-09T05:26:18;11.50;80.60
51811;DHT22;52468;40.116;18.296;2023-04-09T05:28:51;11.50;80.80
51811;DHT22;52468;40.116;18.296;2023-04-09T05:31:21;11.50;81.10
51811;DHT22;52468;40.116;18.296;2023-04-09T05:34:05;11.50;81.00
51811;DHT22;52468;40.116;18.296;2023-04-09T05:36:41;11.60;80.90
51811;DHT22;52468;40.116;18.296;2023-04-09T05:39:09;11.50;81.30
51811;DHT22;52468;40.116;18.296;2023-04-09T05:41:37;11.60;81.10
51811;DHT22;52468;40.116;18.296;2023-04-09T05:44:25;11.80;81.00
51811;DHT22;52468;40.116;18.296;2023-04-09T05:47:00;11.80;80.50
51811;DHT22;52468;40.116;18.296;2023-04-09T05:49:35;12.00;80.40
51811;DHT22;52468;40.116;18.296;2023-04-09T05:52:09;12.10;79.90
51811;DHT22;52468;40.116;18.296;2023-04-09T05:54:37;12.30;80.50
51811;DHT22;52468;40.116;18.296;2023-04-09T05:57:07;12.50;79.00
51811;DHT22;52468;40.116;18.296;2023-04-09T05:59:38;12.60;78.80
51811;DHT22;52468;40.116;18.296;2023-04-09T06:02:06;12.70;78.40
51811;DHT22;52468;40.116;18.296;2023-04-09T06:04:33;12.90;77.90
51811;DHT22;52468;40.116;18.296;2023-04-09T06:07:01;12.90;77.40
51811;DHT22;52468;40.116;18.296;2023-04-09T06:09:29;13.00;77.70
51811;DHT22;52468;40.116;18.296;2023-04-09T06:11:57;12.90;77.40
51811;DHT22;52468;40.116;18.296;2023-04-09T06:14:25;13.00;77.80
51811;DHT22;52468;40.116;18.296;2023-04-09T06:16:53;13.10;77.80
51811;DHT22;52468;40.116;18.296;2023-04-09T06:19:21;13.10;77.70
51811;DHT22;52468;40.116;18.296;2023-04-09T06:21:49;13.20;77.40
51811;DHT22;52468;40.116;18.296;2023-04-09T06:24:17;13.30;77.20
51811;DHT22;52468;40.116;18.296;2023-04-09T06:26:45;13.50;77.20
51811;DHT22;52468;40.116;18.296;2023-04-09T06:29:12;13.60;76.70
51811;DHT22;52468;40.116;18.296;2023-04-09T06:31:40;13.90;76.90
51811;DHT22;52468;40.116;18.296;2023-04-09T06:34:08;14.10;77.00
51811;DHT22;52468;40.116;18.296;2023-04-09T06:36:37;14.40;76.90
51811;DHT22;52468;40.116;18.296;2023-04-09T06:39:06;14.80;76.50
51811;DHT22;52468;40.116;18.296;2023-04-09T06:41:34;15.10;75.90
51811;DHT22;52468;40.116;18.296;2023-04-09T06:44:11;15.40;74.10
51811;DHT22;52468;40.116;18.296;2023-04-09T06:46:39;15.80;73.90
51811;DHT22;52468;40.116;18.296;2023-04-09T06:49:07;15.90;71.20
51811;DHT22;52468;40.116;18.296;2023-04-09T06:51:34;16.00;70.20
51811;DHT22;52468;40.116;18.296;2023-04-09T06:54:02;16.10;70.50
51811;DHT22;52468;40.116;18.296;2023-04-09T06:56:30;16.50;70.70
51811;DHT22;52468;40.116;18.296;2023-04-09T06:58:58;17.10;69.30
51811;DHT22;52468;40.116;18.296;2023-04-09T07:01:26;17.50;66.90
51811;DHT22;52468;40.116;18.296;2023-04-09T07:03:54;18.00;67.60
51811;DHT22;52468;40.116;18.296;2023-04-09T07:06:22;18.50;64.30
51811;DHT22;52468;40.116;18.296;2023-04-09T07:08:50;19.00;65.40
51811;DHT22;52468;40.116;18.296;2023-04-09T07:11:18;19.20;61.20
51811;DHT22;52468;40.116;18.296;2023-04-09T07:13:46;19.20;61.30
51811;DHT22;52468;40.116;18.296;2023-04-09T07:16:14;19.00;61.20
51811;DHT22;52468;40.116;18.296;2023-04-09T07:18:42;18.90;60.10
51811;DHT22;52468;40.116;18.296;2023-04-09T07:21:10;18.60;60.70
51811;DHT22;52468;40.116;18.296;2023-04-09T07:23:37;18.30;60.80
51811;DHT22;52468;40.116;18.296;2023-04-09T07:26:05;18.10;61.30
51811;DHT22;52468;40.116;18.296;2023-04-09T07:28:33;18.10;61.90
51811;DHT22;52468;40.116;18.296;2023-04-09T07:31:01;17.70;61.80
51811;DHT22;52468;40.116;18.296;2023-04-09T07:33:29;17.20;61.90
51811;DHT22;52468;40.116;18.296;2023-04-09T07:35:57;17.10;64.30
51811;DHT22;52468;40.116;18.296;2023-04-09T07:38:28;17.40;62.90
51811;DHT22;52468;40.116;18.296;2023-04-09T07:40:56;17.60;63.60
51811;DHT22;52468;40.116;18.296;2023-04-09T07:43:24;17.80;63.00
51811;DHT22;52468;40.116;18.296;2023-04-09T07:45:51;18.10;63.00
51811;DHT22;52468;40.116;18.296;2023-04-09T07:48:19;18.50;62.30
51811;DHT22;52468;40.116;18.296;2023-04-09T07:50:47;18.80;61.00
51811;DHT22;52468;40.116;18.296;2023-04-09T07:53:15;19.30;60.80
51811;DHT22;52468;40.116;18.296;2023-04-09T07:55:43;19.90;59.10
51811;DHT22;52468;40.116;18.296;2023-04-09T07:58:11;20.10;56.40
51811;DHT22;52468;40.116;18.296;2023-04-09T08:00:38;20.10;56.00
51811;DHT22;52468;40.116;18.296;2023-04-09T08:03:06;20.00;55.10
51811;DHT22;52468;40.116;18.296;2023-04-09T08:05:34;19.80;55.00
51811;DHT22;52468;40.116;18.296;2023-04-09T08:08:04;19.70;56.30
51811;DHT22;52468;40.116;18.296;2023-04-09T08:10:32;20.10;55.90
51811;DHT22;52468;40.116;18.296;2023-04-09T08:12:59;20.30;54.30
51811;DHT22;52468;40.116;18.296;2023-04-09T08:15:28;20.20;54.30
51811;DHT22;52468;40.116;18.296;2023-04-09T08:17:55;20.20;52.90
51811;DHT22;52468;40.116;18.296;2023-04-09T08:20:23;20.10;52.30
51811;DHT22;52468;40.116;18.296;2023-04-09T08:22:51;20.10;52.80
51811;DHT22;52468;40.116;18.296;2023-04-09T08:25:19;20.40;52.40
51811;DHT22;52468;40.116;18.296;2023-04-09T08:27:47;20.60;51.60
51811;DHT22;52468;40.116;18.296;2023-04-09T08:30:15;21.00;49.00
51811;DHT22;52468;40.116;18.296;2023-04-09T08:32:43;21.30;47.20
51811;DHT22;52468;40.116;18.296;2023-04-09T08:35:12;21.50;46.80
51811;DHT22;52468;40.116;18.296;2023-04-09T08:37:40;22.00;46.30
51811;DHT22;52468;40.116;18.296;2023-04-09T08:40:08;22.30;47.50
51811;DHT22;52468;40.116;18.296;2023-04-09T08:42:42;22.80;45.50
51811;DHT22;52468;40.116;18.296;2023-04-09T08:45:12;22.90;44.40
51811;DHT22;52468;40.116;18.296;2023-04-09T08:47:40;23.00;45.20
51811;DHT22;52468;40.116;18.296;2023-04-09T08:50:10;23.10;44.70
51811;DHT22;52468;40.116;18.296;2023-04-09T08:52:38;22.50;44.20
51811;DHT22;52468;40.116;18.296;2023-04-09T08:55:07;22.10;44.20
51811;DHT22;52468;40.116;18.296;2023-04-09T08:57:38;21.50;45.00
51811;DHT22;52468;40.116;18.296;2023-04-09T09:00:07;20.80;46.70
51811;DHT22;52468;40.116;18.296;2023-04-09T09:02:35;20.40;48.30
51811;DHT22;52468;40.116;18.296;2023-04-09T09:05:03;20.30;48.70
51811;DHT22;52468;40.116;18.296;2023-04-09T09:07:31;20.60;48.30
51811;DHT22;52468;40.116;18.296;2023-04-09T09:10:01;20.60;45.20
51811;DHT22;52468;40.116;18.296;2023-04-09T09:15:27;20.50;43.00
51811;DHT22;52468;40.116;18.296;2023-04-09T09:17:55;20.30;43.00
51811;DHT22;52468;40.116;18.296;2023-04-09T09:20:24;20.20;43.60
51811;DHT22;52468;40.116;18.296;2023-04-09T09:22:55;20.10;43.20
51811;DHT22;52468;40.116;18.296;2023-04-09T09:25:23;19.90;43.90
51811;DHT22;52468;40.116;18.296;2023-04-09T09:27:52;20.00;43.80
51811;DHT22;52468;40.116;18.296;2023-04-09T09:30:25;20.50;42.50
51811;DHT22;52468;40.116;18.296;2023-04-09T09:33:07;20.40;41.70
51811;DHT22;52468;40.116;18.296;2023-04-09T09:38:18;19.70;42.60
51811;DHT22;52468;40.116;18.296;2023-04-09T09:40:46;19.60;43.40
51811;DHT22;52468;40.116;18.296;2023-04-09T09:43:14;19.60;44.00
51811;DHT22;52468;40.116;18.296;2023-04-09T09:45:43;19.60;43.60
51811;DHT22;52468;40.116;18.296;2023-04-09T09:48:13;19.50;44.20
51811;DHT22;52468;40.116;18.296;2023-04-09T09:50:43;19.80;44.40
51811;DHT22;52468;40.116;18.296;2023-04-09T09:53:12;20.30;45.10
51811;DHT22;52468;40.116;18.296;2023-04-09T09:55:42;20.90;44.20
51811;DHT22;52468;40.116;18.296;2023-04-09T09:58:21;21.40;41.40
51811;DHT22;52468;40.116;18.296;2023-04-09T10:00:51;21.70;41.50
51811;DHT22;52468;40.116;18.296;2023-04-09T10:03:29;22.00;41.40
51811;DHT22;52468;40.116;18.296;2023-04-09T10:06:00;22.00;41.40
51811;DHT22;52468;40.116;18.296;2023-04-09T10:08:30;22.00;40.50
51811;DHT22;52468;40.116;18.296;2023-04-09T10:11:00;22.00;38.70
51811;DHT22;52468;40.116;18.296;2023-04-09T10:13:55;21.60;39.40
51811;DHT22;52468;40.116;18.296;2023-04-09T10:16:23;21.40;40.30
51811;DHT22;52468;40.116;18.296;2023-04-09T10:18:51;21.00;41.30
51811;DHT22;52468;40.116;18.296;2023-04-09T10:24:15;21.10;41.60
51811;DHT22;52468;40.116;18.296;2023-04-09T10:26:43;21.40;39.30
51811;DHT22;52468;40.116;18.296;2023-04-09T10:29:14;21.20;39.20
51811;DHT22;52468;40.116;18.296;2023-04-09T10:31:46;20.90;38.70
51811;DHT22;52468;40.116;18.296;2023-04-09T10:34:16;20.80;39.90
51811;DHT22;52468;40.116;18.296;2023-04-09T10:36:50;20.90;40.70
51811;DHT22;52468;40.116;18.296;2023-04-09T10:39:19;21.10;41.80
51811;DHT22;52468;40.116;18.296;2023-04-09T10:41:48;21.30;41.30
51811;DHT22;52468;40.116;18.296;2023-04-09T10:44:23;21.10;41.50
51811;DHT22;52468;40.116;18.296;2023-04-09T10:46:53;21.00;40.90
51811;DHT22;52468;40.116;18.296;2023-04-09T10:49:23;21.20;40.40
51811;DHT22;52468;40.116;18.296;2023-04-09T10:52:10;21.30;40.70
51811;DHT22;52468;40.116;18.296;2023-04-09T10:54:41;21.50;40.60
51811;DHT22;52468;40.116;18.296;2023-04-09T10:57:19;21.80;40.30
51811;DHT22;52468;40.116;18.296;2023-04-09T10:59:52;22.30;38.70
51811;DHT22;52468;40.116;18.296;2023-04-09T11:10:20;22.30;38.70
51811;DHT22;52468;40.116;18.296;2023-04-09T11:12:49;22.50;39.40
51811;DHT22;52468;40.116;18.296;2023-04-09T11:15:18;22.60;39.40
51811;DHT22;52468;40.116;18.296;2023-04-09T11:17:47;22.90;38.20
51811;DHT22;52468;40.116;18.296;2023-04-09T11:20:18;23.00;37.90
51811;DHT22;52468;40.116;18.296;2023-04-09T11:22:49;23.00;38.60
51811;DHT22;52468;40.116;18.296;2023-04-09T11:25:21;23.10;38.70
51811;DHT22;52468;40.116;18.296;2023-04-09T11:27:50;23.30;38.60
51811;DHT22;52468;40.116;18.296;2023-04-09T11:30:18;23.60;38.10
51811;DHT22;52468;40.116;18.296;2023-04-09T11:32:50;23.60;38.40
51811;DHT22;52468;40.116;18.296;2023-04-09T11:35:20;24.00;37.00
51811;DHT22;52468;40.116;18.296;2023-04-09T11:37:49;24.20;37.40
51811;DHT22;52468;40.116;18.296;2023-04-09T11:40:20;24.40;37.20
51811;DHT22;52468;40.116;18.296;2023-04-09T11:42:49;24.50;36.60
51811;DHT22;52468;40.116;18.296;2023-04-09T11:45:19;24.40;36.40
51811;DHT22;52468;40.116;18.296;2023-04-09T11:47:47;24.50;37.40
51811;DHT22;52468;40.116;18.296;2023-04-09T11:50:15;24.50;36.90
51811;DHT22;52468;40.116;18.296;2023-04-09T11:52:44;24.70;35.70
51811;DHT22;52468;40.116;18.296;2023-04-09T11:55:25;25.00;35.70
51811;DHT22;52468;40.116;18.296;2023-04-09T11:57:57;25.30;34.60
51811;DHT22;52468;40.116;18.296;2023-04-09T12:00:27;25.50;34.70
51811;DHT22;52468;40.116;18.296;2023-04-09T12:03:02;25.60;35.00
51811;DHT22;52468;40.116;18.296;2023-04-09T12:05:32;25.50;34.20
51811;DHT22;52468;40.116;18.296;2023-04-09T12:08:03;25.10;35.00
51811;DHT22;52468;40.116;18.296;2023-04-09T12:10:36;24.60;35.50
51811;DHT22;52468;40.116;18.296;2023-04-09T12:13:08;24.00;36.60
51811;DHT22;52468;40.116;18.296;2023-04-09T12:15:40;23.50;37.30
51811;DHT22;52468;40.116;18.296;2023-04-09T12:18:11;23.10;38.40
51811;DHT22;52468;40.116;18.296;2023-04-09T12:20:42;22.60;39.90
51811;DHT22;52468;40.116;18.296;2023-04-09T12:23:12;22.30;41.10
51811;DHT22;52468;40.116;18.296;2023-04-09T12:25:41;22.10;41.10
51811;DHT22;52468;40.116;18.296;2023-04-09T12:28:12;22.00;41.80
51811;DHT22;52468;40.116;18.296;2023-04-09T12:30:42;21.70;42.50
51811;DHT22;52468;40.116;18.296;2023-04-09T12:33:10;21.40;42.70
51811;DHT22;52468;40.116;18.296;2023-04-09T12:35:38;20.80;43.70
51811;DHT22;52468;40.116;18.296;2023-04-09T12:38:06;20.50;44.70
51811;DHT22;52468;40.116;18.296;2023-04-09T12:40:38;20.20;45.60
51811;DHT22;52468;40.116;18.296;2023-04-09T12:43:06;20.00;45.70
51811;DHT22;52468;40.116;18.296;2023-04-09T12:45:34;19.90;46.40
51811;DHT22;52468;40.116;18.296;2023-04-09T12:48:02;20.00;46.40
51811;DHT22;52468;40.116;18.296;2023-04-09T12:50:29;20.10;46.40
51811;DHT22;52468;40.116;18.296;2023-04-09T12:52:57;20.30;45.80
51811;DHT22;52468;40.116;18.296;2023-04-09T12:55:25;20.30;45.90
51811;DHT22;52468;40.116;18.296;2023-04-09T12:57:54;20.50;45.30
51811;DHT22;52468;40.116;18.296;2023-04-09T13:00:22;20.60;44.30
51811;DHT22;52468;40.116;18.296;2023-04-09T13:02:50;20.50;44.40
51811;DHT22;52468;40.116;18.296;2023-04-09T13:05:19;20.50;44.30
51811;DHT22;52468;40.116;18.296;2023-04-09T13:07:47;20.60;44.70
51811;DHT22;52468;40.116;18.296;2023-04-09T13:10:14;21.10;44.20
51811;DHT22;52468;40.116;18.296;2023-04-09T13:12:42;22.00;42.10
51811;DHT22;52468;40.116;18.296;2023-04-09T13:15:10;22.00;41.80
51811;DHT22;52468;40.116;18.296;2023-04-09T13:17:38;21.30;42.20
51811;DHT22;52468;40.116;18.296;2023-04-09T13:20:06;21.10;43.60
51811;DHT22;52468;40.116;18.296;2023-04-09T13:22:34;21.20;44.00
51811;DHT22;52468;40.116;18.296;2023-04-09T13:25:03;21.00;44.50
51811;DHT22;52468;40.116;18.296;2023-04-09T13:27:31;20.50;45.60
51811;DHT22;52468;40.116;18.296;2023-04-09T13:29:59;19.90;46.40
51811;DHT22;52468;40.116;18.296;2023-04-09T13:32:27;19.50;48.30
51811;DHT22;52468;40.116;18.296;2023-04-09T13:34:55;19.30;48.20
51811;DHT22;52468;40.116;18.296;2023-04-09T13:37:24;19.00;49.00
51811;DHT22;52468;40.116;18.296;2023-04-09T13:39:52;19.00;49.60
51811;DHT22;52468;40.116;18.296;2023-04-09T13:42:20;18.60;51.30
51811;DHT22;52468;40.116;18.296;2023-04-09T13:44:48;18.60;51.20
51811;DHT22;52468;40.116;18.296;2023-04-09T13:47:16;18.50;52.00
51811;DHT22;52468;40.116;18.296;2023-04-09T13:49:44;18.30;52.60
51811;DHT22;52468;40.116;18.296;2023-04-09T13:52:12;18.00;53.60
51811;DHT22;52468;40.116;18.296;2023-04-09T13:54:40;18.00;54.10
51811;DHT22;52468;40.116;18.296;2023-04-09T13:57:08;17.60;55.20
51811;DHT22;52468;40.116;18.296;2023-04-09T13:59:37;17.70;55.70
51811;DHT22;52468;40.116;18.296;2023-04-09T14:02:04;17.90;55.20
51811;DHT22;52468;40.116;18.296;2023-04-09T14:04:32;18.20;53.40
51811;DHT22;52468;40.116;18.296;2023-04-09T14:07:00;18.70;52.00
51811;DHT22;52468;40.116;18.296;2023-04-09T14:09:28;18.40;51.90
51811;DHT22;52468;40.116;18.296;2023-04-09T14:11:56;18.10;52.90
51811;DHT22;52468;40.116;18.296;2023-04-09T14:14:24;17.80;54.10
51811;DHT22;52468;40.116;18.296;2023-04-09T14:16:52;17.50;55.20
51811;DHT22;52468;40.116;18.296;2023-04-09T14:19:21;17.30;55.60
51811;DHT22;52468;40.116;18.296;2023-04-09T14:21:49;17.30;55.20
51811;DHT22;52468;40.116;18.296;2023-04-09T14:24:19;17.20;55.50
51811;DHT22;52468;40.116;18.296;2023-04-09T14:26:49;17.30;55.10
51811;DHT22;52468;40.116;18.296;2023-04-09T14:29:20;17.50;55.10
51811;DHT22;52468;40.116;18.296;2023-04-09T14:31:48;17.70;54.60
51811;DHT22;52468;40.116;18.296;2023-04-09T14:34:16;17.80;54.70
51811;DHT22;52468;40.116;18.296;2023-04-09T14:36:44;18.00;54.30
51811;DHT22;52468;40.116;18.296;2023-04-09T14:39:12;18.50;53.20
51811;DHT22;52468;40.116;18.296;2023-04-09T14:41:39;20.10;49.80
51811;DHT22;52468;40.116;18.296;2023-04-09T14:44:08;21.60;44.30
51811;DHT22;52468;40.116;18.296;2023-04-09T14:46:35;21.00;44.50
51811;DHT22;52468;40.116;18.296;2023-04-09T14:49:03;20.00;46.50
51811;DHT22;52468;40.116;18.296;2023-04-09T14:51:32;19.30;48.60
51811;DHT22;52468;40.116;18.296;2023-04-09T14:54:00;19.00;49.20
51811;DHT22;52468;40.116;18.296;2023-04-09T14:56:30;18.90;50.80
51811;DHT22;52468;40.116;18.296;2023-04-09T14:58:58;21.00;46.50
51811;DHT22;52468;40.116;18.296;2023-04-09T15:01:26;23.30;41.60
51811;DHT22;52468;40.116;18.296;2023-04-09T15:06:23;26.80;34.30
51811;DHT22;52468;40.116;18.296;2023-04-09T15:08:50;26.60;33.60
51811;DHT22;52468;40.116;18.296;2023-04-09T15:11:19;26.50;33.70
51811;DHT22;52468;40.116;18.296;2023-04-09T15:13:50;26.90;33.10
51811;DHT22;52468;40.116;18.296;2023-04-09T15:16:27;26.50;33.20
51811;DHT22;52468;40.116;18.296;2023-04-09T15:18:55;25.90;33.70
51811;DHT22;52468;40.116;18.296;2023-04-09T15:21:25;25.50;35.00
51811;DHT22;52468;40.116;18.296;2023-04-09T15:23:54;26.00;34.10
51811;DHT22;52468;40.116;18.296;2023-04-09T15:26:25;26.40;33.70
51811;DHT22;52468;40.116;18.296;2023-04-09T15:29:00;26.30;33.30
51811;DHT22;52468;40.116;18.296;2023-04-09T15:31:31;26.10;33.20
51811;DHT22;52468;40.116;18.296;2023-04-09T15:33:59;25.90;33.90
51811;DHT22;52468;40.116;18.296;2023-04-09T15:36:27;25.00;35.00
51811;DHT22;52468;40.116;18.296;2023-04-09T15:38:56;23.80;37.50
51811;DHT22;52468;40.116;18.296;2023-04-09T15:41:24;22.60;39.30
51811;DHT22;52468;40.116;18.296;2023-04-09T15:43:53;21.10;42.10
51811;DHT22;52468;40.116;18.296;2023-04-09T15:46:21;20.00;44.70
51811;DHT22;52468;40.116;18.296;2023-04-09T15:48:49;19.10;46.60
51811;DHT22;52468;40.116;18.296;2023-04-09T15:51:16;19.00;48.10
51811;DHT22;52468;40.116;18.296;2023-04-09T15:53:44;19.10;49.10
51811;DHT22;52468;40.116;18.296;2023-04-09T15:56:12;19.90;47.70